Time;durP1;ratioP1;P1;durP2;ratioP2;P2;SDS_P1;SDS_P2;PMS_P1;PMS_P2;Temp;Humidity;BMP_temperature;BMP_pressure;BME280_temperature;BME280_humidity;BME280_pressure;Samples;Min_cycle;Max_cycle;Signal;HPM_P1;HPM_P2
2021/05/04 00:01:19;;;;;;;5.30;4.80;;;11.30;99.90;;;;;;5070252;28;20733;-76
2021/05/04 00:03:45;;;;;;;5.67;5.20;;;11.20;99.90;;;;;;5070262;28;20264;-76
2021/05/04 00:06:12;;;;;;;5.57;5.00;;;11.00;99.90;;;;;;5070456;28;20206;-79
2021/05/04 00:08:38;;;;;;;6.30;5.70;;;11.00;99.90;;;;;;5070378;28;20271;-79
2021/05/04 00:11:05;;;;;;;5.97;5.37;;;11.10;99.90;;;;;;5070847;28;20360;-80
2021/05/04 00:13:31;;;;;;;6.87;5.13;;;11.00;99.90;;;;;;5070115;28;20209;-77
2021/05/04 00:15:58;;;;;;;6.67;6.00;;;11.00;99.90;;;;;;5070489;28;20291;-77
2021/05/04 00:18:25;;;;;;;6.43;5.80;;;11.10;99.90;;;;;;5070594;28;20236;-75
2021/05/04 00:20:52;;;;;;;5.77;5.23;;;11.00;99.90;;;;;;5070099;28;20205;-74
2021/05/04 00:23:18;;;;;;;5.83;5.27;;;11.00;99.90;;;;;;5070316;28;20224;-74
2021/05/04 00:25:45;;;;;;;5.50;5.00;;;11.00;99.90;;;;;;5070123;28;20206;-74
2021/05/04 00:28:11;;;;;;;5.77;5.20;;;11.00;99.90;;;;;;5070159;28;20260;-75
2021/05/04 00:30:37;;;;;;;5.03;4.63;;;11.00;99.90;;;;;;5069403;28;20214;-75
2021/05/04 00:33:04;;;;;;;7.50;5.57;;;11.00;99.90;;;;;;5070536;28;20623;-74
2021/05/04 00:35:32;;;;;;;7.60;5.47;;;11.00;99.90;;;;;;5069509;28;20202;-75
2021/05/04 00:37:58;;;;;;;5.27;4.70;;;10.90;99.90;;;;;;5070426;28;20241;-75
2021/05/04 00:40:25;;;;;;;6.30;5.07;;;10.90;99.90;;;;;;5070487;28;20206;-78
2021/05/04 00:42:51;;;;;;;5.37;4.87;;;10.90;99.90;;;;;;5069566;28;20677;-78
2021/05/04 00:45:18;;;;;;;4.93;4.53;;;10.90;99.90;;;;;;5069943;28;20631;-78
2021/05/04 00:47:44;;;;;;;6.77;5.60;;;10.90;99.90;;;;;;5069708;28;20203;-79
2021/05/04 00:50:12;;;;;;;5.33;4.80;;;10.90;99.90;;;;;;5070093;28;20209;-81
2021/05/04 00:52:40;;;;;;;5.03;4.53;;;10.80;99.90;;;;;;5069616;28;20613;-81
2021/05/04 00:55:07;;;;;;;5.87;4.97;;;10.90;99.90;;;;;;5070128;28;20210;-81
2021/05/04 00:57:34;;;;;;;5.17;4.37;;;10.90;99.90;;;;;;5069559;28;20222;-79
2021/05/04 01:00:04;;;;;;;8.00;4.90;;;10.90;99.90;;;;;;5072698;28;20213;-80
2021/05/04 01:02:32;;;;;;;8.10;5.17;;;10.80;99.90;;;;;;5073322;28;20284;-78
2021/05/04 01:04:59;;;;;;;8.73;5.60;;;10.80;99.90;;;;;;5073861;28;20209;-79
2021/05/04 01:07:27;;;;;;;7.90;5.80;;;10.70;99.90;;;;;;5074422;28;20210;-80
2021/05/04 01:09:54;;;;;;;5.83;5.13;;;10.60;99.90;;;;;;5073699;28;20641;-77
2021/05/04 01:12:21;;;;;;;10.97;6.60;;;10.60;99.90;;;;;;5073586;28;20737;-78
2021/05/04 01:14:48;;;;;;;6.33;5.73;;;10.60;99.90;;;;;;5070801;28;20221;-78
2021/05/04 01:17:15;;;;;;;7.07;6.37;;;10.60;99.90;;;;;;5061912;28;20621;-77
2021/05/04 01:19:41;;;;;;;7.53;6.33;;;10.50;99.90;;;;;;5073223;28;20206;-77
2021/05/04 01:22:09;;;;;;;7.30;5.90;;;10.50;99.90;;;;;;5073629;28;20206;-77
2021/05/04 01:24:36;;;;;;;5.50;5.03;;;10.40;99.90;;;;;;5073307;28;20214;-77
2021/05/04 01:27:03;;;;;;;7.07;6.37;;;10.40;99.90;;;;;;5072814;28;20225;-77
2021/05/04 01:29:29;;;;;;;7.87;7.07;;;10.40;99.90;;;;;;5073922;28;20198;-78
2021/05/04 01:31:56;;;;;;;6.90;6.20;;;10.40;99.90;;;;;;5073808;28;20206;-78
2021/05/04 01:34:23;;;;;;;8.87;6.00;;;10.40;99.90;;;;;;5073292;28;20198;-78
2021/05/04 01:36:49;;;;;;;8.10;6.23;;;10.40;99.90;;;;;;5063895;28;20206;-80
2021/05/04 01:39:18;;;;;;;6.43;5.87;;;10.40;99.90;;;;;;5073454;28;20724;-79
2021/05/04 01:41:44;;;;;;;6.07;5.47;;;10.30;99.90;;;;;;5072135;28;20588;-78
2021/05/04 01:44:11;;;;;;;7.07;6.37;;;10.20;99.90;;;;;;5072813;28;20747;-79
2021/05/04 01:46:38;;;;;;;6.03;5.50;;;10.10;99.90;;;;;;5073152;28;20210;-80
2021/05/04 01:49:06;;;;;;;6.23;5.63;;;10.10;99.90;;;;;;5073298;28;20712;-81
2021/05/04 01:51:34;;;;;;;7.50;5.37;;;10.20;99.90;;;;;;5072402;28;20202;-80
2021/05/04 01:54:01;;;;;;;5.90;5.30;;;10.10;99.90;;;;;;5072795;28;20206;-77
2021/05/04 01:56:28;;;;;;;7.03;5.30;;;10.20;99.90;;;;;;5072619;28;20256;-78
2021/05/04 01:58:59;;;;;;;6.23;5.70;;;10.10;99.90;;;;;;5072780;28;20241;-78
2021/05/04 02:01:26;;;;;;;5.87;4.70;;;10.00;99.90;;;;;;5072894;28;20685;-78
2021/05/04 02:03:52;;;;;;;6.13;4.60;;;10.10;99.90;;;;;;5072508;28;20210;-78
2021/05/04 02:06:22;;;;;;;7.63;5.03;;;10.10;99.90;;;;;;5072813;28;20260;-77
2021/05/04 02:08:48;;;;;;;9.10;6.00;;;10.10;99.90;;;;;;5072473;28;20237;-80
2021/05/04 02:11:16;;;;;;;6.40;5.80;;;10.10;99.90;;;;;;5071570;28;20210;-79
2021/05/04 02:13:43;;;;;;;6.40;5.80;;;10.00;99.90;;;;;;5072201;28;20260;-80
2021/05/04 02:16:09;;;;;;;5.73;5.20;;;10.00;99.90;;;;;;5072794;28;20260;-81
2021/05/04 02:18:36;;;;;;;8.07;5.90;;;10.00;99.90;;;;;;5071745;28;20344;-80
2021/05/04 02:21:03;;;;;;;7.37;6.30;;;10.00;99.90;;;;;;5072475;28;20260;-78
2021/05/04 02:23:31;;;;;;;8.40;5.33;;;10.00;99.90;;;;;;5072262;28;20206;-79
2021/05/04 02:25:57;;;;;;;7.40;5.30;;;10.00;99.90;;;;;;5072388;28;20259;-77
2021/05/04 02:28:24;;;;;;;7.30;6.60;;;9.90;99.90;;;;;;5072691;28;20259;-81
2021/05/04 02:30:51;;;;;;;7.00;5.83;;;9.70;99.90;;;;;;5072156;28;20767;-80
2021/05/04 02:33:18;;;;;;;5.57;5.07;;;9.70;99.90;;;;;;5072336;28;20214;-78
2021/05/04 02:35:44;;;;;;;5.57;5.07;;;9.70;99.90;;;;;;5071707;28;20565;-78
2021/05/04 02:38:10;;;;;;;8.10;5.33;;;9.70;99.90;;;;;;5072076;28;20230;-79
2021/05/04 02:40:37;;;;;;;5.30;4.80;;;9.80;99.90;;;;;;5071313;28;20217;-79
2021/05/04 02:43:04;;;;;;;7.53;5.30;;;9.70;99.90;;;;;;5072126;28;20202;-78
2021/05/04 02:45:30;;;;;;;7.87;6.13;;;9.70;99.90;;;;;;5071850;28;20582;-77
2021/05/04 02:47:58;;;;;;;6.93;5.43;;;9.70;99.90;;;;;;5072020;28;20210;-76
2021/05/04 02:50:24;;;;;;;4.47;4.07;;;9.60;99.90;;;;;;5072089;28;20210;-75
2021/05/04 02:52:51;;;;;;;5.70;5.03;;;9.50;99.90;;;;;;5071222;28;20210;-76
2021/05/04 02:55:17;;;;;;;5.37;4.97;;;9.40;99.90;;;;;;5071818;28;20614;-75
2021/05/04 02:57:44;;;;;;;7.40;6.40;;;9.30;99.90;;;;;;5071062;28;20256;-75
2021/05/04 03:00:12;;;;;;;7.20;5.83;;;9.30;99.90;;;;;;5071902;28;20210;-75
2021/05/04 03:02:38;;;;;;;5.73;5.03;;;9.40;99.90;;;;;;5071164;28;20260;-74
2021/05/04 03:05:06;;;;;;;7.83;5.00;;;9.40;99.90;;;;;;5071423;28;20688;-75
2021/05/04 03:07:33;;;;;;;10.43;5.80;;;9.40;99.90;;;;;;5070895;28;20284;-74
2021/05/04 03:09:59;;;;;;;6.50;5.10;;;9.40;99.90;;;;;;5070926;28;20202;-76
2021/05/04 03:12:26;;;;;;;5.73;5.23;;;9.30;99.90;;;;;;5071932;28;20206;-75
2021/05/04 03:14:52;;;;;;;5.33;4.93;;;9.30;99.90;;;;;;5070875;28;20206;-74
2021/05/04 03:17:19;;;;;;;6.00;5.40;;;9.30;99.90;;;;;;5071208;28;20700;-75
2021/05/04 03:19:45;;;;;;;6.17;5.23;;;9.10;99.90;;;;;;5071028;28;20210;-75
2021/05/04 03:22:13;;;;;;;6.47;5.53;;;9.10;99.90;;;;;;5070581;28;20203;-74
2021/05/04 03:24:39;;;;;;;6.37;5.77;;;9.20;99.90;;;;;;5070744;28;20213;-73
2021/05/04 03:27:06;;;;;;;9.60;5.77;;;9.00;99.90;;;;;;5070905;28;20218;-75
2021/05/04 03:29:33;;;;;;;8.67;6.60;;;9.00;99.90;;;;;;5070931;28;20288;-75
2021/05/04 03:32:00;;;;;;;6.20;5.60;;;8.90;99.90;;;;;;5070902;28;20583;-75
2021/05/04 03:34:27;;;;;;;6.37;5.77;;;9.00;99.90;;;;;;5071429;28;20206;-74
2021/05/04 03:36:53;;;;;;;6.73;6.03;;;9.00;99.90;;;;;;5070739;28;20217;-75
2021/05/04 03:39:20;;;;;;;6.30;5.80;;;9.20;99.90;;;;;;5070534;28;20230;-74
2021/05/04 03:41:47;;;;;;;7.30;6.47;;;8.90;99.90;;;;;;5070223;28;20232;-74
2021/05/04 03:44:13;;;;;;;6.27;5.67;;;8.80;99.90;;;;;;5070705;28;20206;-74
2021/05/04 03:46:40;;;;;;;8.97;6.00;;;9.00;99.90;;;;;;5070651;28;20210;-74
2021/05/04 03:49:07;;;;;;;8.93;7.23;;;9.00;99.90;;;;;;5070453;28;20685;-73
2021/05/04 03:51:33;;;;;;;6.13;5.63;;;9.00;99.90;;;;;;5070338;28;20202;-74
2021/05/04 03:54:00;;;;;;;6.83;6.13;;;9.10;99.90;;;;;;5070739;28;20213;-75
2021/05/04 03:56:27;;;;;;;7.10;6.50;;;9.10;99.90;;;;;;5070790;28;20259;-75
2021/05/04 03:58:54;;;;;;;7.20;6.50;;;8.90;99.90;;;;;;5070658;28;20236;-74
2021/05/04 04:01:20;;;;;;;7.57;6.47;;;8.80;99.90;;;;;;5070626;28;20205;-74
2021/05/04 04:03:48;;;;;;;8.07;6.07;;;8.80;99.90;;;;;;5070029;28;20658;-75
2021/05/04 04:06:15;;;;;;;7.30;6.70;;;8.80;99.90;;;;;;5070584;28;20213;-77
2021/05/04 04:08:41;;;;;;;7.50;6.40;;;8.80;99.90;;;;;;5070286;28;20206;-77
2021/05/04 04:11:08;;;;;;;7.77;5.90;;;8.90;99.90;;;;;;5070528;28;20202;-75
2021/05/04 04:13:35;;;;;;;6.60;5.47;;;8.90;99.90;;;;;;5070022;28;20206;-77
2021/05/04 04:16:01;;;;;;;6.87;6.17;;;8.80;99.90;;;;;;5070721;28;20206;-74
2021/05/04 04:18:28;;;;;;;5.30;4.80;;;8.80;99.90;;;;;;5070306;28;20222;-76
2021/05/04 04:20:54;;;;;;;8.27;5.80;;;8.70;99.90;;;;;;5070660;28;20206;-80
2021/05/04 04:23:22;;;;;;;6.20;5.60;;;8.80;99.90;;;;;;5070420;28;20202;-77
2021/05/04 04:25:50;;;;;;;5.47;4.97;;;8.80;99.90;;;;;;5070239;28;20213;-80
2021/05/04 04:28:16;;;;;;;7.30;5.17;;;9.00;99.90;;;;;;5070576;28;20218;-80
2021/05/04 04:30:44;;;;;;;6.43;5.93;;;9.00;99.90;;;;;;5069969;28;20213;-79
2021/05/04 04:33:10;;;;;;;7.63;5.70;;;9.00;99.90;;;;;;5072241;28;20264;-80
2021/05/04 04:35:37;;;;;;;7.00;6.30;;;8.80;99.90;;;;;;5074417;28;20206;-81
2021/05/04 04:38:03;;;;;;;5.50;4.90;;;9.00;99.90;;;;;;5061448;28;20234;-75
2021/05/04 04:40:30;;;;;;;6.77;6.13;;;9.20;99.90;;;;;;5072426;28;20206;-80
2021/05/04 04:42:56;;;;;;;6.37;5.77;;;9.30;99.90;;;;;;5068718;28;20211;-83
2021/05/04 04:45:23;;;;;;;6.80;5.87;;;9.20;99.90;;;;;;5071497;28;20209;-78
2021/05/04 04:47:50;;;;;;;6.43;5.83;;;9.00;99.90;;;;;;5073765;28;20217;-83
2021/05/04 04:50:16;;;;;;;6.77;5.20;;;9.10;99.90;;;;;;5074746;28;20210;-80
2021/05/04 04:52:43;;;;;;;6.27;5.67;;;9.20;99.90;;;;;;5074128;28;20221;-82
2021/05/04 04:55:10;;;;;;;6.73;5.20;;;9.20;99.90;;;;;;5067944;28;20198;-83
2021/05/04 04:57:36;;;;;;;5.57;4.97;;;9.20;99.90;;;;;;5068895;28;20220;-84
2021/05/04 05:00:04;;;;;;;7.97;5.83;;;9.10;99.90;;;;;;5074206;28;20211;-75
2021/05/04 05:02:30;;;;;;;6.80;6.20;;;9.10;99.90;;;;;;5074230;28;20210;-73
2021/05/04 05:04:58;;;;;;;8.00;7.00;;;9.10;99.90;;;;;;5074248;28;20210;-79
2021/05/04 05:07:24;;;;;;;6.67;5.90;;;9.10;99.90;;;;;;5074711;28;20206;-82
2021/05/04 05:09:51;;;;;;;8.87;6.03;;;9.20;99.90;;;;;;5073481;28;20210;-78
2021/05/04 05:12:17;;;;;;;8.33;7.23;;;9.30;99.90;;;;;;5074229;28;20666;-77
2021/05/04 05:14:44;;;;;;;7.13;5.87;;;9.40;99.90;;;;;;5073467;28;20221;-83
2021/05/04 05:17:11;;;;;;;6.87;5.73;;;9.30;99.90;;;;;;5074204;28;20574;-74
2021/05/04 05:19:38;;;;;;;7.60;6.90;;;9.50;99.90;;;;;;5072761;28;20328;-74
2021/05/04 05:22:06;;;;;;;7.43;6.17;;;9.70;99.90;;;;;;5073904;28;20202;-74
2021/05/04 05:24:34;;;;;;;8.60;6.40;;;9.80;99.90;;;;;;5073524;28;20283;-82
2021/05/04 05:27:01;;;;;;;8.30;6.60;;;9.80;99.90;;;;;;5073165;28;20210;-77
2021/05/04 05:29:30;;;;;;;8.57;6.97;;;9.90;99.90;;;;;;5073580;28;20221;-73
2021/05/04 05:31:56;;;;;;;7.20;6.50;;;10.00;99.90;;;;;;5068035;28;20759;-74
2021/05/04 05:34:23;;;;;;;9.77;6.30;;;10.00;99.90;;;;;;5073640;28;20213;-73
2021/05/04 05:36:49;;;;;;;8.40;6.43;;;9.80;99.90;;;;;;5072921;28;20202;-73
2021/05/04 05:39:17;;;;;;;6.60;6.00;;;9.90;99.90;;;;;;5073155;28;20238;-74
2021/05/04 05:41:44;;;;;;;9.93;5.83;;;10.10;99.90;;;;;;5072467;28;20233;-75
2021/05/04 05:44:10;;;;;;;7.73;6.20;;;10.10;99.90;;;;;;5070493;28;20253;-74
2021/05/04 05:46:37;;;;;;;7.70;6.57;;;10.20;99.90;;;;;;5059861;28;20207;-75
2021/05/04 05:49:03;;;;;;;12.73;7.17;;;10.30;99.90;;;;;;5064829;28;20719;-75
2021/05/04 05:51:30;;;;;;;9.10;6.03;;;10.30;99.90;;;;;;5061270;28;20214;-75
2021/05/04 05:53:57;;;;;;;7.10;6.40;;;10.30;99.90;;;;;;5058284;28;20206;-76
2021/05/04 05:56:25;;;;;;;7.93;7.20;;;10.40;99.90;;;;;;5053372;28;20203;-77
2021/05/04 05:58:52;;;;;;;9.33;6.17;;;10.60;99.90;;;;;;5063685;28;20774;-74
2021/05/04 06:01:18;;;;;;;10.77;6.33;;;10.80;99.90;;;;;;5072656;28;20210;-74
2021/05/04 06:03:45;;;;;;;11.80;7.13;;;10.90;99.90;;;;;;5072381;28;20202;-75
2021/05/04 06:06:11;;;;;;;6.77;5.27;;;10.90;99.90;;;;;;5060073;28;20203;-75
2021/05/04 06:08:38;;;;;;;9.30;6.63;;;11.10;99.90;;;;;;5056876;28;20686;-75
2021/05/04 06:11:04;;;;;;;8.97;6.47;;;11.00;99.90;;;;;;5058063;28;20232;-75
2021/05/04 06:13:32;;;;;;;8.43;6.30;;;11.00;99.90;;;;;;5052686;28;20203;-75
2021/05/04 06:15:58;;;;;;;8.43;6.43;;;11.10;99.90;;;;;;5053147;28;20203;-74
2021/05/04 06:18:24;;;;;;;7.23;6.40;;;11.20;99.90;;;;;;5053146;28;20607;-75
2021/05/04 06:20:51;;;;;;;7.03;5.20;;;11.40;99.90;;;;;;5052497;28;20217;-74
2021/05/04 06:23:17;;;;;;;14.13;6.37;;;11.30;99.90;;;;;;5052643;28;20446;-75
2021/05/04 06:25:44;;;;;;;11.10;6.13;;;11.10;99.90;;;;;;5052287;28;20203;-74
2021/05/04 06:28:10;;;;;;;7.83;5.50;;;11.20;99.90;;;;;;5052643;28;20218;-75
2021/05/04 06:30:39;;;;;;;7.57;6.43;;;11.20;99.90;;;;;;5061084;28;20207;-75
2021/05/04 06:33:07;;;;;;;7.07;5.00;;;11.10;99.90;;;;;;5063996;28;20203;-78
2021/05/04 06:35:35;;;;;;;7.97;5.13;;;11.10;99.90;;;;;;5066317;28;20206;-76
2021/05/04 06:38:02;;;;;;;13.53;5.17;;;11.20;99.90;;;;;;5066237;28;20610;-78
2021/05/04 06:40:29;;;;;;;10.97;6.13;;;11.20;99.90;;;;;;5067810;28;20198;-73
2021/05/04 06:42:55;;;;;;;5.60;5.07;;;11.20;99.90;;;;;;5072188;28;20210;-77
2021/05/04 06:45:22;;;;;;;7.73;5.17;;;11.20;99.90;;;;;;5071848;28;20206;-75
2021/05/04 06:47:50;;;;;;;9.23;5.37;;;11.30;99.90;;;;;;5071077;28;20272;-74
2021/05/04 06:50:16;;;;;;;6.60;4.83;;;11.50;99.90;;;;;;5064667;28;20592;-79
2021/05/04 06:52:43;;;;;;;5.63;4.70;;;11.80;99.90;;;;;;5071182;28;20214;-78
2021/05/04 06:55:10;;;;;;;7.47;4.50;;;12.00;99.90;;;;;;5071678;28;20213;-77
2021/05/04 06:57:37;;;;;;;6.53;5.23;;;12.10;99.90;;;;;;5064382;28;20210;-78
2021/05/04 07:00:04;;;;;;;5.63;5.07;;;12.40;99.90;;;;;;5057805;28;20218;-77
2021/05/04 07:02:31;;;;;;;5.33;4.80;;;12.50;99.90;;;;;;5064647;28;20210;-76
2021/05/04 07:04:58;;;;;;;6.60;4.23;;;12.70;99.90;;;;;;5066772;28;20210;-76
2021/05/04 07:07:25;;;;;;;8.97;4.90;;;12.80;99.90;;;;;;5071690;28;20206;-78
2021/05/04 07:09:51;;;;;;;5.93;4.80;;;12.80;99.90;;;;;;5070829;28;20741;-79
2021/05/04 07:12:18;;;;;;;5.73;5.20;;;13.00;99.90;;;;;;5071478;28;20229;-78
2021/05/04 07:14:44;;;;;;;8.73;5.50;;;13.00;99.90;;;;;;5071159;28;20217;-80
2021/05/04 07:17:10;;;;;;;8.13;5.10;;;13.20;99.90;;;;;;5064207;28;20210;-81
2021/05/04 07:19:39;;;;;;;7.10;4.90;;;13.30;99.90;;;;;;5067197;28;20256;-80
2021/05/04 07:22:09;;;;;;;6.03;5.50;;;13.50;99.90;;;;;;5071122;28;20206;-79
2021/05/04 07:24:36;;;;;;;5.87;4.73;;;13.70;99.90;;;;;;5060371;28;20206;-79
2021/05/04 07:27:02;;;;;;;11.80;5.93;;;13.80;99.90;;;;;;5061367;28;20206;-80
2021/05/04 07:29:29;;;;;;;8.93;4.30;;;14.00;99.90;;;;;;5056095;28;20632;-80
2021/05/04 07:31:56;;;;;;;8.27;4.97;;;14.20;99.90;;;;;;5059995;28;20256;-80
2021/05/04 07:34:22;;;;;;;6.83;4.67;;;14.60;99.90;;;;;;5057956;28;20202;-81
2021/05/04 07:36:49;;;;;;;5.63;4.40;;;14.70;99.90;;;;;;5057816;28;20202;-78
2021/05/04 07:39:17;;;;;;;5.35;4.22;;;14.90;99.90;;;;;;5059049;28;20753;-81
2021/05/04 07:41:43;;;;;;;8.98;3.78;;;15.00;99.90;;;;;;5056038;28;20202;-78
2021/05/04 07:44:10;;;;;;;10.18;4.40;;;15.00;99.90;;;;;;5061844;28;20214;-79
2021/05/04 07:46:36;;;;;;;6.85;4.22;;;15.00;99.90;;;;;;5070500;28;20207;-78
2021/05/04 07:49:05;;;;;;;7.40;4.75;;;15.10;99.90;;;;;;5065654;28;20209;-78
2021/05/04 07:51:32;;;;;;;5.18;4.30;;;15.40;99.90;;;;;;5068835;28;20224;-76
2021/05/04 07:53:58;;;;;;;8.43;4.15;;;15.70;99.90;;;;;;5063094;28;20264;-78
2021/05/04 07:56:26;;;;;;;9.38;4.80;;;15.80;99.90;;;;;;5058880;28;20213;-78
2021/05/04 07:58:52;;;;;;;4.60;3.88;;;15.80;99.90;;;;;;5056980;28;20665;-79
2021/05/04 08:01:19;;;;;;;5.20;4.32;;;15.90;99.90;;;;;;5057223;28;20202;-79
2021/05/04 08:03:45;;;;;;;5.38;4.22;;;16.20;99.90;;;;;;5051830;28;20199;-75
2021/05/04 08:06:12;;;;;;;3.92;3.63;;;16.60;99.90;;;;;;5060479;28;20218;-75
2021/05/04 08:08:38;;;;;;;5.70;4.63;;;16.70;99.90;;;;;;5062030;28;20216;-86
2021/05/04 08:11:05;;;;;;;4.38;3.67;;;16.40;99.90;;;;;;5066386;28;20260;-83
2021/05/04 08:13:32;;;;;;;5.43;4.18;;;16.10;99.90;;;;;;5061583;28;20198;-77
2021/05/04 08:16:03;;;;;;;4.90;3.45;;;15.80;99.90;;;;;;5066805;28;20206;-80
2021/05/04 08:18:32;;;;;;;12.10;5.53;;;15.60;99.90;;;;;;5068884;28;20708;-78
2021/05/04 08:20:58;;;;;;;16.80;6.88;;;15.40;99.90;;;;;;5059100;28;20203;-79
2021/05/04 08:23:25;;;;;;;10.70;5.88;;;15.40;99.90;;;;;;5062454;28;20202;-80
2021/05/04 08:25:52;;;;;;;91.45;36.65;;;15.60;99.90;;;;;;5063191;28;20202;-80
2021/05/04 08:28:20;;;;;;;9.75;8.02;;;16.00;99.90;;;;;;5059194;28;20677;-77
2021/05/04 08:30:47;;;;;;;10.18;7.28;;;16.20;99.90;;;;;;5050521;28;20211;-77
2021/05/04 08:33:14;;;;;;;12.55;10.27;;;16.10;99.90;;;;;;5070321;28;20209;-76
2021/05/04 08:35:40;;;;;;;8.95;5.25;;;16.70;99.90;;;;;;5068863;28;20680;-77
2021/05/04 08:38:07;;;;;;;5.85;5.38;;;17.40;99.90;;;;;;5069993;28;20626;-77
2021/05/04 08:40:33;;;;;;;6.18;5.13;;;18.30;99.90;;;;;;5053717;28;20221;-78
2021/05/04 08:43:00;;;;;;;4.88;4.10;;;18.50;99.90;;;;;;5064352;28;20202;-78
2021/05/04 08:45:30;;;;;;;7.57;5.15;;;18.20;99.90;;;;;;5067424;28;20210;-79
2021/05/04 08:47:58;;;;;;;5.43;3.25;;;18.20;99.90;;;;;;5066639;28;20219;-83
2021/05/04 08:50:24;;;;;;;4.22;3.90;;;17.90;99.90;;;;;;5062661;28;20677;-83
2021/05/04 08:52:52;;;;;;;4.85;3.75;;;17.70;99.90;;;;;;5068432;28;20214;-81
2021/05/04 08:55:19;;;;;;;4.70;3.55;;;17.80;99.90;;;;;;5064277;28;20249;-85
2021/05/04 08:57:46;;;;;;;4.45;4.05;;;18.50;99.90;;;;;;5061604;28;20207;-81
2021/05/04 09:00:15;;;;;;;3.83;3.53;;;20.00;99.90;;;;;;5069984;28;20670;-82
2021/05/04 09:03:00;;;;;;;5.45;4.03;;;21.90;99.90;;;;;;5063950;28;20211;-81
2021/05/04 09:05:36;;;;;;;4.97;4.10;;;23.40;99.90;;;;;;5070554;28;20208;-79
2021/05/04 09:08:08;;;;;;;8.40;4.13;;;24.40;99.90;;;;;;5068031;28;20661;-78
2021/05/04 09:10:40;;;;;;;4.05;3.65;;;25.60;99.90;;;;;;5062694;28;20210;-77
2021/05/04 09:13:18;;;;;;;3.65;3.35;;;23.60;99.90;;;;;;5069180;28;20254;-78
2021/05/04 09:21:32;;;;;;;4.85;4.45;;;23.60;99.90;;;;;;5042537;28;20211;-78
2021/05/04 09:24:01;;;;;;;7.00;3.55;;;21.30;99.90;;;;;;5065686;28;20202;-78
2021/05/04 09:26:32;;;;;;;4.15;3.67;;;20.10;99.90;;;;;;5060761;28;20214;-77
2021/05/04 09:28:59;;;;;;;4.47;3.35;;;20.20;99.90;;;;;;5065509;28;20570;-76
2021/05/04 09:31:27;;;;;;;7.32;3.47;;;20.00;99.90;;;;;;5061782;28;20210;-80
2021/05/04 09:34:06;;;;;;;3.85;3.50;;;19.90;99.90;;;;;;5065653;28;20260;-78
2021/05/04 09:36:45;;;;;;;3.53;3.22;;;20.00;99.90;;;;;;5063384;28;20214;-78
2021/05/04 09:39:24;;;;;;;3.70;3.40;;;20.90;99.90;;;;;;5060195;28;20275;-78
2021/05/04 09:41:50;;;;;;;5.10;3.53;;;22.30;99.90;;;;;;5061023;28;20215;-78
2021/05/04 09:44:36;;;;;;;3.13;2.92;;;21.80;99.90;;;;;;5069895;28;20206;-77
2021/05/04 09:47:03;;;;;;;3.00;2.67;;;21.90;99.90;;;;;;5064978;28;20696;-78
2021/05/04 09:49:31;;;;;;;7.35;3.63;;;21.20;99.90;;;;;;5075825;28;20202;-74
2021/05/04 09:52:23;;;;;;;4.50;2.97;;;20.80;99.90;;;;;;5064169;28;20214;-76
2021/05/04 09:54:50;;;;;;;2.83;2.63;;;20.70;99.90;;;;;;5072325;28;20198;-76
2021/05/04 09:57:40;;;;;;;4.18;2.90;;;20.70;99.90;;;;;;5073186;28;20300;-76
2021/05/04 10:00:12;;;;;;;4.32;2.75;;;21.10;99.90;;;;;;5061484;28;20371;-79
2021/05/04 10:02:39;;;;;;;4.78;3.63;;;21.10;99.90;;;;;;5066880;28;20350;-78
2021/05/04 10:05:09;;;;;;;3.38;3.05;;;21.20;99.90;;;;;;5070234;28;20256;-78
2021/05/04 10:07:38;;;;;;;3.83;3.30;;;21.10;99.90;;;;;;5061423;28;20290;-79
2021/05/04 10:10:06;;;;;;;6.38;3.60;;;22.20;99.90;;;;;;5064021;28;20242;-78
2021/05/04 10:12:33;;;;;;;3.75;3.42;;;23.20;99.90;;;;;;5057401;28;20211;-79
2021/05/04 10:15:02;;;;;;;3.78;3.33;;;23.30;99.90;;;;;;5056559;28;20543;-77
2021/05/04 10:17:32;;;;;;;5.43;3.00;;;24.50;99.90;;;;;;5067163;28;20209;-78
2021/05/04 10:20:01;;;;;;;3.42;3.13;;;26.90;99.90;;;;;;5068620;28;20222;-77
2021/05/04 10:22:28;;;;;;;4.07;3.03;;;26.80;99.90;;;;;;5056866;28;20289;-78
2021/05/04 10:24:57;;;;;;;5.40;2.63;;;27.60;99.90;;;;;;5056601;28;20294;-78
2021/05/04 10:27:24;;;;;;;2.60;2.40;;;25.20;99.90;;;;;;5055968;28;20712;-78
2021/05/04 10:29:52;;;;;;;3.47;3.17;;;26.80;99.90;;;;;;5059447;28;20214;-79
2021/05/04 10:32:52;;;;;;;3.78;3.15;;;25.40;99.90;;;;;;5058297;28;20238;-72
2021/05/04 10:35:43;;;;;;;3.13;2.53;;;22.90;99.90;;;;;;5057748;28;20198;-70
2021/05/04 10:38:12;;;;;;;3.13;2.85;;;21.90;99.90;;;;;;5057101;28;20217;-70
2021/05/04 10:40:40;;;;;;;3.00;2.80;;;21.60;99.90;;;;;;5063335;28;20210;-72
2021/05/04 10:43:39;;;;;;;3.08;2.88;;;21.90;99.90;;;;;;5054921;28;20211;-71
2021/05/04 10:46:12;;;;;;;3.03;2.53;;;22.00;99.90;;;;;;5070126;28;20203;-72
2021/05/04 10:48:49;;;;;;;4.05;2.17;;;22.00;99.90;;;;;;5071675;28;20221;-70
2021/05/04 10:51:17;;;;;;;3.78;2.85;;;21.90;99.90;;;;;;5071723;28;20665;-70
2021/05/04 10:54:05;;;;;;;4.13;3.47;;;22.00;99.90;;;;;;5071301;28;20255;-76
2021/05/04 10:56:33;;;;;;;3.33;3.03;;;21.90;99.90;;;;;;5061157;28;20682;-72
2021/05/04 10:58:59;;;;;;;3.40;3.10;;;21.50;99.90;;;;;;5057759;28;20235;-75
2021/05/04 11:01:26;;;;;;;3.78;3.30;;;21.40;99.90;;;;;;5052100;28;20253;-69
2021/05/04 11:03:54;;;;;;;3.45;3.08;;;21.30;99.90;;;;;;5062119;28;20260;-76
2021/05/04 11:06:46;;;;;;;5.55;2.88;;;21.40;99.90;;;;;;5054789;28;20203;-74
2021/05/04 11:09:21;;;;;;;4.50;2.95;;;21.50;99.90;;;;;;5066431;28;20565;-74
2021/05/04 11:11:50;;;;;;;3.88;3.33;;;21.60;99.90;;;;;;5057259;28;20589;-70
2021/05/04 11:14:31;;;;;;;4.63;2.80;;;21.60;99.90;;;;;;5066272;28;20213;-72
2021/05/04 11:17:16;;;;;;;2.90;2.70;;;21.60;99.90;;;;;;5058149;28;20206;-74
2021/05/04 11:19:44;;;;;;;6.65;3.30;;;21.80;99.90;;;;;;5060494;28;20227;-72
2021/05/04 11:22:22;;;;;;;3.50;2.65;;;22.20;99.90;;;;;;5067545;28;20272;-73
2021/05/04 11:24:52;;;;;;;3.72;2.45;;;22.30;99.90;;;;;;5063543;28;20199;-72
2021/05/04 11:27:26;;;;;;;3.08;2.83;;;22.00;99.90;;;;;;5057301;28;20211;-70
2021/05/04 11:29:54;;;;;;;3.17;2.88;;;21.90;99.90;;;;;;5062341;28;20210;-77
2021/05/04 11:32:24;;;;;;;5.50;3.10;;;21.80;99.90;;;;;;5059247;28;20213;-71
2021/05/04 11:34:58;;;;;;;2.72;2.53;;;22.10;99.90;;;;;;5058132;28;20234;-79
2021/05/04 11:37:39;;;;;;;3.05;2.83;;;21.90;99.90;;;;;;5055879;28;20209;-75
2021/05/04 11:40:10;;;;;;;3.67;2.17;;;21.90;99.90;;;;;;5058659;28;20605;-70
2021/05/04 11:42:38;;;;;;;6.13;2.85;;;21.80;99.90;;;;;;5066073;28;20198;-76
2021/05/04 11:45:09;;;;;;;2.97;2.78;;;21.50;99.90;;;;;;5061827;28;20211;-72
2021/05/04 11:47:36;;;;;;;3.63;2.30;;;21.50;99.90;;;;;;5066905;28;20206;-74
2021/05/04 11:50:06;;;;;;;3.15;2.95;;;21.90;99.90;;;;;;5059755;28;20206;-77
2021/05/04 11:52:33;;;;;;;4.80;2.58;;;22.00;99.90;;;;;;5058881;28;20210;-73
2021/05/04 11:55:10;;;;;;;2.38;2.10;;;21.90;99.90;;;;;;5058553;28;20561;-73
2021/05/04 11:57:38;;;;;;;4.18;3.10;;;21.80;99.90;;;;;;5063795;28;20673;-76
2021/05/04 12:00:07;;;;;;;2.78;2.58;;;21.70;99.90;;;;;;5056199;28;20235;-74
2021/05/04 12:02:34;;;;;;;5.78;2.72;;;21.30;99.90;;;;;;5057241;28;20236;-72
2021/05/04 12:05:01;;;;;;;8.00;3.30;;;21.20;99.90;;;;;;5061485;28;20616;-72
2021/05/04 12:07:36;;;;;;;3.63;2.85;;;21.10;99.90;;;;;;5061078;28;20574;-71
2021/05/04 12:10:04;;;;;;;9.70;3.20;;;21.10;99.90;;;;;;5061819;28;20241;-72
2021/05/04 12:12:41;;;;;;;4.03;2.53;;;21.30;99.90;;;;;;5057085;28;20225;-73
2021/05/04 12:15:09;;;;;;;4.72;2.92;;;21.30;99.90;;;;;;5062235;28;20292;-73
2021/05/04 12:17:36;;;;;;;2.97;2.50;;;21.20;99.90;;;;;;5057624;28;20207;-72
2021/05/04 12:20:13;;;;;;;2.65;2.10;;;21.20;99.90;;;;;;5056491;28;20230;-76
2021/05/04 12:25:37;;;;;;;3.88;2.50;;;21.40;99.90;;;;;;5059925;28;20591;-71
2021/05/04 12:28:06;;;;;;;3.00;2.28;;;21.60;99.90;;;;;;5058283;28;20210;-72
2021/05/04 12:30:32;;;;;;;2.83;2.42;;;21.80;99.90;;;;;;5065728;28;20613;-75
2021/05/04 12:32:59;;;;;;;5.00;2.50;;;22.10;99.90;;;;;;5058876;28;20211;-73
2021/05/04 12:35:28;;;;;;;5.93;2.92;;;22.20;99.90;;;;;;5055416;28;20211;-71
2021/05/04 12:38:12;;;;;;;3.30;2.60;;;22.00;99.90;;;;;;5054876;28;20697;-72
2021/05/04 12:40:40;;;;;;;2.85;2.65;;;21.80;99.90;;;;;;5051761;28;20309;-73
2021/05/04 12:43:16;;;;;;;5.50;2.30;;;22.00;99.90;;;;;;5057692;28;20238;-73
2021/05/04 12:46:06;;;;;;;3.90;2.28;;;21.90;99.90;;;;;;5064210;28;20205;-72
2021/05/04 12:48:33;;;;;;;3.13;2.83;;;22.10;99.90;;;;;;5061184;28;20624;-72
2021/05/04 12:51:06;;;;;;;3.65;2.67;;;22.20;99.90;;;;;;5066476;28;20210;-71
2021/05/04 12:53:34;;;;;;;3.03;2.72;;;22.20;99.90;;;;;;5069998;28;20202;-77
2021/05/04 12:56:21;;;;;;;6.30;2.70;;;22.20;99.90;;;;;;5073947;28;20617;-72
2021/05/04 12:58:57;;;;;;;5.25;3.25;;;22.00;99.90;;;;;;5064392;28;20240;-71
2021/05/04 13:01:51;;;;;;;3.35;2.65;;;21.60;99.90;;;;;;5074072;28;20198;-74
2021/05/04 13:04:38;;;;;;;3.17;2.97;;;21.10;99.90;;;;;;5074042;28;20221;-73